Time;durP1;ratioP1;P1;durP2;ratioP2;P2;SDS_P1;SDS_P2;PMS_P1;PMS_P2;Temp;Humidity;BMP_temperature;BMP_pressure;BME280_temperature;BME280_humidity;BME280_pressure;Samples;Min_cycle;Max_cycle;Signal;HPM_P1;HPM_P2
2023/06/13 00:01:11;;;;;;;6.13;3.60;;;;;;;22.82;31.45;100211.03;4104581;28;20098;-61
2023/06/13 00:03:14;;;;;;;7.95;4.55;;;;;;;22.86;31.29;100215.31;4096578;28;20043;-61
2023/06/13 00:05:18;;;;;;;6.57;3.80;;;;;;;22.78;31.46;100222.69;4103162;28;20043;-61
2023/06/13 00:07:22;;;;;;;6.22;3.65;;;;;;;22.86;31.21;100217.94;4080225;29;20054;-61
2023/06/13 00:09:28;;;;;;;7.25;4.60;;;;;;;22.78;31.32;100222.69;4100832;28;20536;-61
2023/06/13 00:11:31;;;;;;;12.30;4.90;;;;;;;22.79;31.29;100219.13;4103007;28;20051;-61
2023/06/13 00:13:35;;;;;;;5.47;4.15;;;;;;;22.69;31.54;100215.97;4101976;28;20070;-61
2023/06/13 00:15:38;;;;;;;6.15;4.25;;;;;;;22.68;31.53;100214.28;4100495;28;20063;-61
2023/06/13 00:17:41;;;;;;;5.60;3.85;;;;;;;22.59;31.73;100212.84;4095676;28;20036;-62
2023/06/13 00:19:45;;;;;;;7.40;4.43;;;;;;;22.58;31.67;100212.91;4098528;28;20034;-62
2023/06/13 00:21:50;;;;;;;7.32;3.72;;;;;;;22.57;31.90;100204.09;4100408;28;20423;-61
2023/06/13 00:23:53;;;;;;;7.82;4.15;;;;;;;22.47;32.01;100221.25;4096118;28;20036;-62
2023/06/13 00:25:57;;;;;;;9.63;4.50;;;;;;;22.48;32.00;100213.25;4100211;28;20047;-62
2023/06/13 00:28:00;;;;;;;6.80;4.28;;;;;;;22.40;31.99;100212.72;4102228;28;20057;-61
2023/06/13 00:30:03;;;;;;;6.05;4.10;;;;;;;22.36;32.25;100215.53;4093034;28;20063;-61
2023/06/13 00:32:07;;;;;;;14.73;4.40;;;;;;;22.36;32.23;100211.09;4099242;28;20437;-61
2023/06/13 00:34:10;;;;;;;6.68;4.20;;;;;;;22.27;32.43;100200.84;4103596;28;20043;-61
2023/06/13 00:36:15;;;;;;;7.00;3.85;;;;;;;22.37;32.16;100202.25;4098460;28;20509;-61
2023/06/13 00:38:23;;;;;;;9.02;3.78;;;;;;;22.38;32.18;100208.38;4096249;28;20107;-61
2023/06/13 00:40:26;;;;;;;7.50;4.35;;;;;;;22.36;32.23;100203.16;4100993;28;20043;-62
2023/06/13 00:42:31;;;;;;;7.50;4.03;;;;;;;22.33;31.95;100205.03;4091715;28;20436;-61
2023/06/13 00:44:36;;;;;;;6.35;3.92;;;;;;;22.29;32.14;100205.13;4099222;28;20362;-61
2023/06/13 00:46:41;;;;;;;6.68;3.75;;;;;;;22.33;32.02;100205.91;4098179;28;20070;-62
2023/06/13 00:48:45;;;;;;;7.43;3.90;;;;;;;22.31;32.10;100203.31;4096773;28;20039;-61
2023/06/13 00:50:48;;;;;;;5.65;3.90;;;;;;;22.34;31.95;100206.78;4098946;28;20045;-61
2023/06/13 00:52:51;;;;;;;6.50;4.05;;;;;;;22.15;32.31;100210.09;4096700;28;20043;-61
2023/06/13 00:54:54;;;;;;;12.57;4.60;;;;;;;22.17;32.25;100205.63;4085477;29;20035;-61
2023/06/13 00:56:57;;;;;;;8.45;4.35;;;;;;;22.13;32.40;100211.94;4100008;28;20054;-62
2023/06/13 00:59:03;;;;;;;7.90;3.75;;;;;;;22.21;32.08;100206.34;4083875;29;20461;-62
2023/06/13 01:01:09;;;;;;;7.72;3.78;;;;;;;22.21;31.94;100209.88;4102739;28;20116;-62
2023/06/13 01:03:15;;;;;;;6.35;4.00;;;;;;;22.14;32.19;100211.88;4101028;28;20147;-62
2023/06/13 01:05:21;;;;;;;6.38;3.85;;;;;;;22.19;32.07;100201.09;4098423;28;20768;-62
2023/06/13 01:07:29;;;;;;;5.63;3.90;;;;;;;22.06;32.21;100210.44;4102692;28;20074;-62
2023/06/13 01:09:34;;;;;;;6.28;3.83;;;;;;;22.16;32.22;100201.22;4094693;28;20043;-62
2023/06/13 01:11:46;;;;;;;5.53;3.35;;;;;;;22.08;32.25;100211.28;4083535;29;20098;-62
2023/06/13 01:13:54;;;;;;;6.47;3.65;;;;;;;22.01;32.58;100204.47;4095756;28;20423;-62
2023/06/13 01:16:07;;;;;;;7.43;4.07;;;;;;;21.99;32.57;100201.88;4082083;29;20063;-62
2023/06/13 01:18:15;;;;;;;6.20;4.25;;;;;;;22.04;32.59;100199.91;4103616;28;20519;-62
2023/06/13 01:20:20;;;;;;;7.60;4.40;;;;;;;21.91;32.94;100202.16;4085425;28;20071;-62
2023/06/13 01:22:38;;;;;;;6.95;4.43;;;;;;;21.88;32.83;100193.47;4100006;28;20051;-62
2023/06/13 01:24:52;;;;;;;6.82;4.55;;;;;;;21.84;33.04;100198.00;4099760;28;20081;-62
2023/06/13 01:27:00;;;;;;;5.65;3.95;;;;;;;21.85;32.92;100194.44;4095221;28;20050;-62
2023/06/13 01:29:05;;;;;;;7.80;4.90;;;;;;;21.81;33.16;100190.19;4097575;28;20039;-62
2023/06/13 01:31:13;;;;;;;6.78;3.70;;;;;;;21.79;32.88;100184.94;4093756;28;20050;-62
2023/06/13 01:33:18;;;;;;;7.47;4.40;;;;;;;21.87;32.78;100191.75;4096696;28;20053;-62
2023/06/13 01:35:21;;;;;;;;;;;;;;;21.84;33.05;100198.00;4098898;28;20043;-62
2023/06/13 01:37:25;;;;;;;7.03;4.45;;;;;;;21.66;33.29;100193.41;4077626;29;19923;-62
2023/06/13 01:39:28;;;;;;;8.93;4.28;;;;;;;21.60;33.36;100192.69;4081202;29;20047;-62
2023/06/13 01:41:30;;;;;;;7.30;4.70;;;;;;;21.69;33.09;100194.13;4095191;28;21152;-62
2023/06/13 01:43:35;;;;;;;15.27;4.80;;;;;;;21.65;33.20;100195.16;4097649;28;20047;-62
2023/06/13 01:45:39;;;;;;;11.40;4.18;;;;;;;21.57;33.41;100198.09;4098824;28;20130;-62
2023/06/13 01:47:47;;;;;;;7.90;4.82;;;;;;;21.64;33.18;100189.94;4082149;29;20063;-62
2023/06/13 01:50:00;;;;;;;8.73;4.15;;;;;;;21.52;33.26;100194.72;4091093;28;20046;-62
2023/06/13 01:52:09;;;;;;;5.90;3.50;;;;;;;21.41;33.68;100199.53;4088712;28;20129;-62
2023/06/13 01:54:18;;;;;;;10.95;4.28;;;;;;;21.48;33.60;100194.88;4084060;29;20043;-62
2023/06/13 01:56:27;;;;;;;9.90;4.30;;;;;;;21.48;33.54;100201.03;4081504;29;20062;-62
2023/06/13 01:58:35;;;;;;;8.30;4.38;;;;;;;21.50;33.46;100201.84;4082078;29;20040;-62
2023/06/13 02:00:41;;;;;;;7.28;4.22;;;;;;;21.43;33.40;100190.59;4100496;28;20114;-61
2023/06/13 02:02:45;;;;;;;10.98;4.38;;;;;;;21.30;34.00;100194.59;4080717;29;20107;-61
2023/06/13 02:04:49;;;;;;;10.10;4.53;;;;;;;21.34;33.70;100187.44;4096773;28;20572;-62
2023/06/13 02:06:52;;;;;;;6.97;4.05;;;;;;;21.29;33.99;100184.94;4068058;29;20050;-62
2023/06/13 02:08:56;;;;;;;8.15;4.68;;;;;;;21.39;33.76;100185.47;4099534;28;20440;-62
2023/06/13 02:10:59;;;;;;;7.60;5.00;;;;;;;21.37;33.90;100187.31;4096607;28;20082;-62
2023/06/13 02:13:06;;;;;;;7.95;4.68;;;;;;;21.40;34.12;100182.78;4083062;29;20047;-62
2023/06/13 02:15:10;;;;;;;7.05;4.40;;;;;;;21.41;34.01;100176.56;4100381;28;20051;-62
2023/06/13 02:17:15;;;;;;;12.40;4.97;;;;;;;21.39;34.20;100180.19;4077481;29;20158;-62
2023/06/13 02:19:18;;;;;;;;;;;;;;;21.34;34.12;100176.84;4097049;28;20106;-62
2023/06/13 02:21:23;;;;;;;9.25;4.18;;;;;;;21.26;34.29;100175.34;4096860;28;19945;-62
2023/06/13 02:23:26;;;;;;;6.63;4.00;;;;;;;21.23;34.69;100174.56;4081236;29;20525;-61
2023/06/13 02:25:29;;;;;;;7.78;3.90;;;;;;;21.30;34.27;100180.50;4082660;29;20036;-62
2023/06/13 02:27:32;;;;;;;8.57;3.83;;;;;;;21.26;34.18;100177.97;4100703;28;20039;-62
2023/06/13 02:29:36;;;;;;;7.43;4.05;;;;;;;21.22;34.40;100168.44;4096615;28;20130;-62
2023/06/13 02:31:39;;;;;;;;;;;;;;;21.08;34.58;100170.69;4082486;29;20135;-62
2023/06/13 02:33:45;;;;;;;6.22;4.07;;;;;;;21.19;34.31;100181.75;4100633;28;19928;-62
2023/06/13 02:35:48;;;;;;;7.97;4.20;;;;;;;21.10;34.55;100177.66;4096944;28;20409;-62
2023/06/13 02:37:53;;;;;;;7.15;3.78;;;;;;;21.10;34.67;100179.44;4091044;28;20043;-62
2023/06/13 02:39:57;;;;;;;8.10;3.60;;;;;;;21.09;34.79;100180.34;4098475;28;20047;-62
2023/06/13 02:42:00;;;;;;;7.45;3.80;;;;;;;21.16;34.69;100179.22;4091678;28;20138;-62
2023/06/13 02:44:03;;;;;;;9.95;3.97;;;;;;;21.10;34.59;100179.44;4097657;28;20066;-62
2023/06/13 02:46:07;;;;;;;6.28;3.83;;;;;;;21.00;34.75;100178.03;4084106;29;20123;-62
2023/06/13 02:48:09;;;;;;;7.07;4.15;;;;;;;20.96;34.94;100181.66;4101100;28;20054;-62
2023/06/13 02:50:14;;;;;;;6.75;3.92;;;;;;;20.87;35.03;100181.06;4089342;28;20090;-62
2023/06/13 02:52:19;;;;;;;4.72;3.28;;;;;;;20.87;35.08;100177.56;4081005;29;20159;-62
2023/06/13 02:54:22;;;;;;;7.35;3.80;;;;;;;20.85;35.28;100177.59;4101072;28;20043;-62
2023/06/13 02:56:26;;;;;;;6.32;2.92;;;;;;;20.88;35.14;100174.88;4092901;28;20147;-62
2023/06/13 02:58:28;;;;;;;6.23;4.00;;;;;;;20.87;35.29;100181.06;4080792;29;20074;-62
2023/06/13 03:00:31;;;;;;;6.90;4.30;;;;;;;20.93;35.06;100177.34;4098012;28;20301;-62
2023/06/13 03:02:43;;;;;;;9.20;3.42;;;;;;;20.86;35.21;100186.38;4094692;28;20127;-62
2023/06/13 03:04:47;;;;;;;11.73;4.80;;;;;;;21.03;34.80;100177.91;4095441;28;20031;-62
2023/06/13 03:06:53;;;;;;;9.40;4.25;;;;;;;20.91;34.89;100177.41;4082187;29;20039;-62
2023/06/13 03:08:58;;;;;;;8.85;3.75;;;;;;;20.93;35.11;100183.47;4082662;29;20036;-61
2023/06/13 03:11:03;;;;;;;6.85;4.00;;;;;;;20.86;35.15;100187.25;4080223;29;20572;-62
2023/06/13 03:13:06;;;;;;;8.98;4.25;;;;;;;20.75;35.35;100182.31;4084484;29;20042;-62
2023/06/13 03:15:12;;;;;;;;;;;;;;;20.61;35.48;100192.44;4103200;28;20053;-62
2023/06/13 03:17:16;;;;;;;5.60;3.88;;;;;;;20.70;35.49;100181.59;4096088;28;20005;-62
2023/06/13 03:19:19;;;;;;;6.15;4.00;;;;;;;20.72;35.27;100182.41;4097945;28;20118;-62
2023/06/13 03:21:22;;;;;;;7.75;3.95;;;;;;;20.69;35.38;100190.44;4100937;28;20509;-62
2023/06/13 03:23:27;;;;;;;6.13;3.78;;;;;;;20.67;35.53;100191.41;4081401;29;20091;-62
2023/06/13 03:25:31;;;;;;;;;;;;;;;20.56;35.58;100200.50;4095721;28;20035;-62
2023/06/13 03:27:35;;;;;;;6.72;3.28;;;;;;;20.49;35.61;100198.97;4099452;28;19930;-62
2023/06/13 03:29:38;;;;;;;;;;;;;;;20.52;35.73;100203.28;4080700;29;20142;-62
2023/06/13 03:31:41;;;;;;;7.68;3.92;;;;;;;20.49;35.81;100192.81;4067432;29;19977;-61
2023/06/13 03:33:44;;;;;;;7.55;3.50;;;;;;;20.51;36.03;100196.28;4102074;28;20117;-62
2023/06/13 03:35:47;;;;;;;7.38;4.13;;;;;;;20.53;35.95;100200.59;4097633;28;20066;-62
2023/06/13 03:37:53;;;;;;;5.85;3.58;;;;;;;20.57;36.09;100196.97;4098350;28;20599;-62
2023/06/13 03:39:58;;;;;;;7.80;3.40;;;;;;;20.45;36.21;100202.59;4100837;28;20035;-62
2023/06/13 03:42:02;;;;;;;8.52;3.45;;;;;;;20.45;36.36;100197.31;4083244;29;20055;-61
2023/06/13 03:44:05;;;;;;;7.53;3.88;;;;;;;20.42;36.23;100196.56;4097557;28;20519;-62
2023/06/13 03:46:08;;;;;;;7.18;3.63;;;;;;;20.44;36.16;100200.00;4098851;28;20071;-62
2023/06/13 03:48:11;;;;;;;9.57;4.28;;;;;;;20.43;35.93;100199.16;4096808;28;20074;-61
2023/06/13 03:50:15;;;;;;;;;;;;;;;20.37;36.52;100209.88;4083779;29;20036;-62
2023/06/13 03:52:19;;;;;;;8.27;3.83;;;;;;;20.34;36.28;100207.34;4084787;29;19922;-62
2023/06/13 03:54:23;;;;;;;8.13;4.20;;;;;;;20.34;36.71;100208.22;4104396;28;20063;-62
2023/06/13 03:56:27;;;;;;;7.65;3.72;;;;;;;20.43;36.43;100199.16;4100307;28;20039;-62
2023/06/13 03:58:32;;;;;;;;;;;;;;;20.40;36.30;100208.03;4087147;29;20426;-62
2023/06/13 04:00:39;;;;;;;9.20;4.35;;;;;;;20.36;36.18;100208.19;4099627;28;19923;-62
2023/06/13 04:02:42;;;;;;;9.95;4.50;;;;;;;20.27;36.69;100205.78;4100971;28;20066;-62
2023/06/13 04:04:48;;;;;;;6.70;4.60;;;;;;;20.21;37.23;100205.09;4089191;29;20047;-62
2023/06/13 04:06:51;;;;;;;11.63;5.38;;;;;;;20.30;36.72;100211.00;4083736;29;20036;-62
2023/06/13 04:08:54;;;;;;;12.10;4.65;;;;;;;20.30;36.71;100217.16;4096677;28;20523;-61
2023/06/13 04:10:56;;;;;;;14.38;4.43;;;;;;;20.15;36.93;100223.75;4099296;28;20139;-62
2023/06/13 04:13:01;;;;;;;10.32;4.43;;;;;;;20.12;37.72;100228.25;4084380;29;20035;-62
2023/06/13 04:15:06;;;;;;;9.18;3.95;;;;;;;20.19;36.98;100221.88;4085587;29;20086;-62
2023/06/13 04:17:09;;;;;;;9.23;3.90;;;;;;;20.18;37.39;100228.94;4101638;28;20039;-61
2023/06/13 04:19:18;;;;;;;7.90;4.75;;;;;;;20.25;37.61;100241.94;4100312;28;20035;-62
2023/06/13 04:21:24;;;;;;;12.05;4.13;;;;;;;20.27;37.51;100229.56;4096330;28;20052;-62
2023/06/13 04:23:27;;;;;;;9.93;4.32;;;;;;;20.37;37.36;100231.00;4084221;29;20417;-62
2023/06/13 04:25:32;;;;;;;10.73;4.03;;;;;;;20.32;37.91;100230.28;4098002;28;20035;-61
2023/06/13 04:27:36;;;;;;;8.88;4.45;;;;;;;20.37;37.45;100229.25;4098839;28;20035;-62
2023/06/13 04:29:43;;;;;;;7.60;4.28;;;;;;;20.36;37.92;100237.22;4096428;28;20675;-62
2023/06/13 04:31:46;;;;;;;10.73;3.95;;;;;;;20.30;37.58;100240.06;4082291;29;20032;-62
2023/06/13 04:33:55;;;;;;;14.02;4.30;;;;;;;20.36;37.47;100239.84;4098505;28;20481;-62
2023/06/13 04:36:03;;;;;;;10.90;4.57;;;;;;;20.29;37.47;100244.44;4093320;28;20398;-62
2023/06/13 04:38:08;;;;;;;15.80;4.63;;;;;;;20.42;37.69;100241.47;4105098;28;20047;-62
2023/06/13 04:40:13;;;;;;;10.65;4.75;;;;;;;20.40;37.17;100236.22;4094470;28;20063;-62
2023/06/13 04:42:21;;;;;;;12.00;4.25;;;;;;;20.32;37.27;100247.00;4084576;29;20040;-62
2023/06/13 04:44:25;;;;;;;7.45;3.88;;;;;;;20.33;38.28;100245.25;4094856;28;20044;-64
2023/06/13 04:46:29;;;;;;;11.25;4.03;;;;;;;20.57;37.15;100244.50;4080661;29;20047;-63
2023/06/13 04:48:32;;;;;;;10.60;3.80;;;;;;;20.53;40.02;100245.50;4103363;28;20095;-63
2023/06/13 04:50:37;;;;;;;7.93;3.42;;;;;;;20.65;37.83;100246.91;4092890;28;20405;-64
2023/06/13 04:52:40;;;;;;;6.70;3.50;;;;;;;20.84;37.04;100241.94;4093999;28;20122;-63
2023/06/13 04:54:43;;;;;;;10.05;4.07;;;;;;;20.78;37.23;100242.13;4105787;28;20037;-63
2023/06/13 04:56:46;;;;;;;7.30;3.58;;;;;;;20.87;36.61;100257.69;4099567;28;20067;-63
2023/06/13 04:58:49;;;;;;;6.20;3.67;;;;;;;20.79;37.05;100257.03;4081116;28;21696;-63
2023/06/13 05:00:53;;;;;;;8.38;3.17;;;;;;;20.78;37.35;100257.97;4095339;28;20568;-63
2023/06/13 05:03:00;;;;;;;6.50;3.78;;;;;;;20.82;37.02;100264.91;4099527;28;20031;-64
2023/06/13 05:05:04;;;;;;;7.70;3.58;;;;;;;20.86;37.27;100265.66;4092151;28;20050;-63
2023/06/13 05:07:07;;;;;;;7.97;3.92;;;;;;;20.86;37.29;100266.50;4100140;28;20049;-64
2023/06/13 05:09:13;;;;;;;7.95;3.95;;;;;;;20.83;37.36;100263.97;4095040;28;20046;-64
2023/06/13 05:11:16;;;;;;;5.90;3.80;;;;;;;20.98;36.55;100269.69;4098656;28;20497;-63
2023/06/13 05:13:19;;;;;;;9.52;3.55;;;;;;;20.95;36.99;100272.44;4097773;28;20178;-63
2023/06/13 05:15:22;;;;;;;5.82;3.70;;;;;;;21.03;36.64;100278.34;4101731;28;20515;-64
2023/06/13 05:17:27;;;;;;;6.55;3.75;;;;;;;21.10;35.95;100280.72;4103016;28;20043;-63
2023/06/13 05:19:32;;;;;;;7.10;3.58;;;;;;;20.99;36.82;100280.22;4083417;29;20090;-64
2023/06/13 05:21:34;;;;;;;12.38;3.85;;;;;;;21.06;36.51;100278.25;4098281;28;20035;-64
2023/06/13 05:23:38;;;;;;;9.40;4.03;;;;;;;21.21;35.93;100283.00;4101974;28;20070;-64
2023/06/13 05:25:41;;;;;;;8.20;3.73;;;;;;;21.14;35.98;100284.13;4100106;28;20134;-63
2023/06/13 05:27:44;;;;;;;6.45;3.13;;;;;;;21.15;35.68;100287.66;4084071;29;20316;-63
2023/06/13 05:29:46;;;;;;;6.93;3.58;;;;;;;21.14;36.14;100281.47;4097577;28;20039;-63
2023/06/13 05:31:50;;;;;;;8.05;3.22;;;;;;;21.31;35.79;100278.28;4083875;29;20584;-63
2023/06/13 05:33:53;;;;;;;7.20;3.30;;;;;;;21.33;36.52;100279.09;4099702;28;20503;-63
2023/06/13 05:35:57;;;;;;;4.90;3.25;;;;;;;21.27;36.34;100277.56;4092010;28;20136;-63
2023/06/13 05:38:00;;;;;;;4.65;2.55;;;;;;;21.39;35.70;100278.03;4097304;28;20039;-63
2023/06/13 05:40:04;;;;;;;6.43;3.05;;;;;;;21.47;35.77;100270.72;4099102;28;20489;-63
2023/06/13 05:42:07;;;;;;;6.20;3.30;;;;;;;21.57;34.84;100273.94;4098789;28;20123;-63
2023/06/13 05:44:10;;;;;;;9.25;3.17;;;;;;;21.59;35.27;100280.91;4085453;29;20071;-63
2023/06/13 05:46:14;;;;;;;5.77;3.23;;;;;;;21.61;34.97;100276.44;4100655;28;20126;-63
2023/06/13 05:48:17;;;;;;;8.40;2.87;;;;;;;21.53;34.66;100283.75;4098421;28;20118;-63
2023/06/13 05:50:20;;;;;;;6.60;3.10;;;;;;;21.50;35.58;100288.28;4099299;28;20043;-63
2023/06/13 05:52:25;;;;;;;6.47;3.58;;;;;;;21.82;34.53;100286.31;4099562;28;20051;-63
2023/06/13 05:54:28;;;;;;;8.88;3.38;;;;;;;21.76;34.05;100282.09;4099309;28;20043;-63
2023/06/13 05:56:33;;;;;;;4.63;2.97;;;;;;;21.79;34.13;100284.66;4102674;28;20047;-63
2023/06/13 05:58:36;;;;;;;4.90;2.55;;;;;;;21.80;34.64;100281.09;4097574;28;20043;-63
2023/06/13 06:00:40;;;;;;;6.53;3.78;;;;;;;21.67;34.46;100280.66;4097679;28;20098;-63
2023/06/13 06:02:44;;;;;;;5.70;3.42;;;;;;;21.65;34.82;100284.25;4103959;28;20121;-63
2023/06/13 06:04:47;;;;;;;8.25;3.35;;;;;;;21.81;34.70;100290.72;4092820;28;20047;-63
2023/06/13 06:06:50;;;;;;;11.20;3.50;;;;;;;21.94;34.31;100289.38;4099537;28;20121;-63
2023/06/13 06:08:54;;;;;;;6.60;3.15;;;;;;;22.09;33.29;100289.75;4080072;29;20043;-63
2023/06/13 06:10:57;;;;;;;7.60;2.83;;;;;;;21.86;34.07;100299.41;4097910;28;20035;-63
2023/06/13 06:13:00;;;;;;;9.80;3.80;;;;;;;22.01;34.12;100297.13;4096597;28;20069;-64
2023/06/13 06:15:05;;;;;;;5.47;2.47;;;;;;;22.03;32.87;100293.47;4094384;28;20043;-64
2023/06/13 06:17:07;;;;;;;10.60;3.00;;;;;;;22.07;33.02;100294.25;4098717;28;20035;-63
2023/06/13 06:19:10;;;;;;;8.75;3.17;;;;;;;21.95;34.05;100288.47;4103815;28;20045;-63
2023/06/13 06:21:14;;;;;;;6.78;3.00;;;;;;;22.12;33.86;100297.56;4098811;28;20070;-63
2023/06/13 06:23:17;;;;;;;5.03;3.13;;;;;;;22.29;32.78;100303.13;4100655;28;20070;-64
2023/06/13 06:25:21;;;;;;;4.22;3.05;;;;;;;22.33;32.07;100293.31;4096862;28;20039;-64
2023/06/13 06:27:28;;;;;;;5.28;2.65;;;;;;;22.25;32.64;100296.22;4093643;28;20450;-64
2023/06/13 06:29:31;;;;;;;9.27;3.40;;;;;;;22.27;33.20;100293.53;4073513;29;20131;-64
2023/06/13 06:31:33;;;;;;;8.73;3.53;;;;;;;22.40;32.04;100292.19;4098050;28;20046;-64
2023/06/13 06:33:36;;;;;;;5.13;3.00;;;;;;;22.32;31.67;100288.94;4081690;29;20040;-64
2023/06/13 06:35:39;;;;;;;10.48;3.15;;;;;;;22.16;32.08;100299.19;4101552;28;20405;-63
2023/06/13 06:37:43;;;;;;;6.97;3.17;;;;;;;22.20;32.30;100294.66;4097214;28;20054;-63
2023/06/13 06:39:46;;;;;;;5.93;3.00;;;;;;;22.17;32.73;100294.78;4094611;28;20050;-64
2023/06/13 06:41:50;;;;;;;11.00;3.38;;;;;;;22.48;32.27;100289.22;4091145;28;20053;-64
2023/06/13 06:43:56;;;;;;;5.97;3.30;;;;;;;22.55;31.83;100296.03;4069957;29;20038;-64
2023/06/13 06:46:01;;;;;;;5.45;3.30;;;;;;;22.47;31.80;100298.97;4096633;28;20462;-63
2023/06/13 06:48:04;;;;;;;5.97;3.05;;;;;;;22.41;32.62;100295.69;4097705;28;20046;-64
2023/06/13 06:50:07;;;;;;;5.97;3.03;;;;;;;22.65;32.09;100300.03;4097877;28;20043;-64
2023/06/13 06:52:10;;;;;;;5.20;2.67;;;;;;;22.72;32.06;100302.44;4099898;28;20035;-63
2023/06/13 06:54:13;;;;;;;7.10;3.53;;;;;;;22.75;32.65;100295.25;4097753;28;20062;-63
2023/06/13 06:56:16;;;;;;;6.68;3.22;;;;;;;22.89;31.53;100297.34;4097129;28;20043;-64
2023/06/13 06:58:20;;;;;;;5.78;3.17;;;;;;;22.89;32.02;100304.44;4101552;28;20074;-64
2023/06/13 07:00:24;;;;;;;5.13;3.03;;;;;;;23.00;31.35;100305.75;4093994;28;20043;-64
2023/06/13 07:02:27;;;;;;;7.45;3.58;;;;;;;23.02;30.64;100305.69;4082200;29;20413;-64
2023/06/13 07:04:30;;;;;;;7.60;3.53;;;;;;;22.98;30.58;100299.66;4101346;28;20046;-64
2023/06/13 07:06:33;;;;;;;6.65;3.20;;;;;;;22.84;30.97;100302.00;4099675;28;20505;-64
2023/06/13 07:08:36;;;;;;;4.90;2.85;;;;;;;22.85;31.00;100311.63;4100112;28;20118;-64
2023/06/13 07:10:38;;;;;;;4.63;2.85;;;;;;;22.73;30.55;100305.03;4082362;29;20122;-63
2023/06/13 07:12:42;;;;;;;6.38;3.13;;;;;;;22.67;31.31;100308.78;4097651;28;20043;-63
2023/06/13 07:14:46;;;;;;;10.52;2.92;;;;;;;22.77;30.96;100300.50;4098101;28;20486;-63
2023/06/13 07:16:49;;;;;;;9.32;3.10;;;;;;;22.84;31.18;100300.19;4101039;28;20607;-63
2023/06/13 07:18:52;;;;;;;6.45;3.05;;;;;;;22.93;30.60;100304.25;4099107;28;20525;-64
2023/06/13 07:20:55;;;;;;;8.88;3.22;;;;;;;22.95;31.08;100297.09;4081487;29;20060;-63
2023/06/13 07:22:58;;;;;;;7.20;3.03;;;;;;;23.02;31.05;100298.56;4096124;28;20560;-63
2023/06/13 07:25:01;;;;;;;8.98;3.72;;;;;;;23.07;31.28;100305.50;4097277;28;20035;-63
2023/06/13 07:27:04;;;;;;;11.27;3.50;;;;;;;23.15;31.03;100303.44;4096920;28;20043;-63
2023/06/13 07:29:07;;;;;;;5.68;3.65;;;;;;;23.24;31.15;100294.25;4099063;28;20045;-63
2023/06/13 07:31:11;;;;;;;6.53;2.97;;;;;;;23.43;30.26;100291.69;4102720;28;20043;-63
2023/06/13 07:33:14;;;;;;;6.20;2.83;;;;;;;23.27;30.61;100292.31;4103307;28;20147;-63
2023/06/13 07:35:23;;;;;;;8.68;2.97;;;;;;;23.31;31.07;100288.59;4069007;29;20103;-63
2023/06/13 07:37:27;;;;;;;9.73;3.08;;;;;;;23.45;30.57;100287.16;4101903;28;20126;-63
2023/06/13 07:39:30;;;;;;;7.22;3.38;;;;;;;23.44;30.84;100285.47;4083167;29;20373;-63
2023/06/13 07:41:36;;;;;;;7.70;3.83;;;;;;;23.68;30.59;100292.38;4098083;28;20048;-63
2023/06/13 07:43:39;;;;;;;5.05;2.97;;;;;;;23.72;30.90;100285.13;4102220;28;20057;-63
2023/06/13 07:45:42;;;;;;;6.43;3.50;;;;;;;23.87;29.48;100280.97;4103959;28;20073;-64
2023/06/13 07:47:46;;;;;;;8.65;3.67;;;;;;;23.79;29.75;100278.63;4101984;28;20045;-63
2023/06/13 07:49:49;;;;;;;8.32;3.30;;;;;;;23.47;30.64;100278.22;4087739;29;20130;-63
2023/06/13 07:51:52;;;;;;;7.38;3.45;;;;;;;23.41;30.65;100270.53;4086143;29;20473;-63
2023/06/13 07:53:55;;;;;;;6.35;4.03;;;;;;;23.53;31.37;100275.28;4094839;28;20476;-64
2023/06/13 07:55:58;;;;;;;3.80;2.53;;;;;;;23.77;30.37;100266.34;4093844;28;20035;-63
2023/06/13 07:58:01;;;;;;;7.18;3.58;;;;;;;23.80;30.82;100272.41;4098184;28;20036;-63
2023/06/13 08:00:09;;;;;;;5.10;3.42;;;;;;;23.87;30.73;100263.28;4083145;29;20050;-64
2023/06/13 08:02:14;;;;;;;8.95;4.32;;;;;;;24.11;29.36;100275.50;4102482;28;20054;-63
2023/06/13 08:04:18;;;;;;;12.70;3.88;;;;;;;23.97;30.12;100265.50;4105250;28;20035;-63
2023/06/13 08:06:22;;;;;;;5.20;3.00;;;;;;;23.88;30.22;100264.97;4083730;29;20135;-63
2023/06/13 08:08:24;;;;;;;8.45;3.88;;;;;;;24.22;28.90;100271.44;4097979;28;20058;-64
2023/06/13 08:10:27;;;;;;;6.80;3.80;;;;;;;24.14;29.08;100264.75;4097873;28;20043;-64
2023/06/13 08:12:31;;;;;;;8.10;3.60;;;;;;;24.21;28.23;100263.50;4100417;28;20106;-64
2023/06/13 08:14:35;;;;;;;7.95;3.92;;;;;;;24.11;28.73;100265.75;4085280;29;20122;-64
2023/06/13 08:16:38;;;;;;;5.28;3.13;;;;;;;23.99;28.81;100263.63;4101399;28;20035;-63
2023/06/13 08:18:40;;;;;;;7.25;3.33;;;;;;;23.99;29.30;100264.50;4082484;29;20095;-64
2023/06/13 08:20:45;;;;;;;6.63;3.38;;;;;;;24.04;29.84;100262.50;4100540;28;20454;-64
2023/06/13 08:22:50;;;;;;;6.88;3.22;;;;;;;24.38;28.89;100260.94;4100097;28;20043;-64
2023/06/13 08:24:53;;;;;;;5.43;3.33;;;;;;;24.29;28.55;100253.41;4102585;28;20486;-64
2023/06/13 08:26:57;;;;;;;9.05;3.47;;;;;;;24.34;28.71;100251.41;4097615;28;20035;-64
2023/06/13 08:29:01;;;;;;;3.45;2.90;;;;;;;24.28;28.79;100262.31;4100669;28;20608;-64
2023/06/13 08:31:05;;;;;;;9.38;3.17;;;;;;;24.23;29.09;100265.19;4096855;28;20497;-63
2023/06/13 08:33:28;;;;;;;5.68;2.78;;;;;;;24.23;29.54;100256.34;4090255;29;20506;-63
2023/06/13 08:35:31;;;;;;;7.75;3.05;;;;;;;24.45;29.12;100256.22;4101245;28;20477;-64
2023/06/13 08:37:36;;;;;;;4.70;2.90;;;;;;;24.36;28.85;100251.34;4095875;28;20050;-63
2023/06/13 08:39:38;;;;;;;8.70;3.80;;;;;;;24.52;28.88;100246.16;4096437;28;20129;-64
2023/06/13 08:41:45;;;;;;;6.97;3.55;;;;;;;24.59;28.88;100242.31;4099754;28;20481;-64
2023/06/13 08:43:49;;;;;;;7.43;3.58;;;;;;;24.87;28.74;100239.19;4096820;28;21385;-63
2023/06/13 08:45:52;;;;;;;7.88;3.17;;;;;;;24.61;28.97;100240.44;4085876;29;20031;-64
2023/06/13 08:47:55;;;;;;;5.95;3.10;;;;;;;24.70;28.74;100234.66;4101976;28;20047;-64
2023/06/13 08:50:00;;;;;;;7.13;3.33;;;;;;;24.93;28.15;100224.72;4094563;28;20036;-64
2023/06/13 08:52:03;;;;;;;;;;;;;;;24.94;28.98;100233.56;4101895;28;20047;-64
2023/06/13 08:54:12;;;;;;;8.95;2.90;;;;;;;24.96;29.63;100237.88;4097220;28;19981;-64
2023/06/13 08:56:15;;;;;;;4.35;3.08;;;;;;;25.09;28.31;100232.81;4099893;28;20043;-64
2023/06/13 08:58:20;;;;;;;7.70;3.53;;;;;;;25.19;28.03;100233.19;4099497;28;20049;-64
2023/06/13 09:00:26;;;;;;;8.75;4.20;;;;;;;25.32;28.05;100236.13;4099029;28;20491;-64
2023/06/13 09:02:29;;;;;;;9.00;3.70;;;;;;;25.34;27.88;100235.09;4098626;28;20039;-64
2023/06/13 09:04:35;;;;;;;5.20;3.22;;;;;;;25.30;26.55;100228.19;4100650;28;20660;-64
2023/06/13 09:06:39;;;;;;;4.95;3.08;;;;;;;25.22;26.90;100225.06;4097805;28;20072;-64
2023/06/13 09:08:43;;;;;;;9.00;3.60;;;;;;;25.15;26.34;100227.16;4099724;28;20030;-64
2023/06/13 09:10:48;;;;;;;6.65;3.30;;;;;;;25.10;27.18;100213.22;4085331;29;20035;-64
2023/06/13 09:12:51;;;;;;;;;;;;;;;25.07;28.07;100219.59;4103008;28;20485;-63
2023/06/13 09:14:54;;;;;;;6.25;3.38;;;;;;;25.24;28.00;100215.19;4097539;28;19977;-64
2023/06/13 09:16:57;;;;;;;5.20;3.42;;;;;;;25.38;26.50;100217.19;4100721;28;20405;-64
2023/06/13 09:19:00;;;;;;;6.80;3.47;;;;;;;25.27;26.55;100217.69;4099233;28;20386;-64
2023/06/13 09:21:03;;;;;;;8.20;3.30;;;;;;;25.18;26.90;100219.03;4086885;29;20055;-64
2023/06/13 09:23:07;;;;;;;5.82;3.33;;;;;;;25.27;26.42;100205.25;4081465;29;20528;-64
2023/06/13 09:25:16;;;;;;;5.13;3.33;;;;;;;25.44;26.08;100208.91;4101560;28;20035;-64
2023/06/13 09:27:21;;;;;;;5.70;3.65;;;;;;;25.48;26.16;100214.91;4103022;28;20047;-64
2023/06/13 09:29:31;;;;;;;5.13;3.38;;;;;;;25.38;26.31;100204.75;4095004;28;20041;-64
2023/06/13 09:31:40;;;;;;;4.80;3.17;;;;;;;25.50;26.55;100211.22;4097039;28;20085;-64
2023/06/13 09:33:45;;;;;;;11.43;3.88;;;;;;;25.57;26.36;100206.47;4101779;28;20075;-65
2023/06/13 09:35:48;;;;;;;9.55;3.55;;;;;;;25.56;26.18;100202.91;4089053;28;20031;-64
2023/06/13 09:37:51;;;;;;;8.55;3.40;;;;;;;25.75;27.35;100201.94;4103279;28;20066;-64
2023/06/13 09:39:54;;;;;;;5.30;3.63;;;;;;;25.84;25.86;100200.59;4100172;28;20059;-64